Steptoe Valley WMA, Nevada Weather observations

Data are for 10 minute period ending at time listed.
 Day   Time   Solar   Ave.   Ave.  Ave.  Vector  Max.   Baro.   Total    
  of    of     Rad.   Air    Rel.  Wind   Wind   Wind  Press.  Precip.   
Year   Day            Temp.  Hum.  Speed  Dir.   Gust                    
2020   (PST)  Kw/m2    F      %     mph   deg.    mph    mb.     in.     
-------------------------------------------------------------------------
 268    0:00   -0.00   40.9    40    2.8   189     4.6   807.1    0.00 
 268    0:10   -0.00   41.5    37    3.3   175     5.4   807.0    0.00 
 268    0:20   -0.00   41.2    38    4.5   160     8.3   807.0    0.00 
 268    0:30   -0.00   41.5    37    4.1   159     6.4   807.0    0.00 
 268    0:40   -0.00   41.0    40    3.8   161     5.7   807.0    0.00 
 268    0:50   -0.00   40.7    42    4.2   163     5.7   807.0    0.00 
 268    1:00   -0.00   41.5    43    4.9   160     6.8   806.9    0.00 
 268    1:10   -0.00   42.3    44    5.0   166     7.2   806.9    0.00 
 268    1:20   -0.00   41.2    49    5.1   172     8.3   806.9    0.00 
 268    1:30   -0.00   40.4    50    4.2   164     7.2   806.8    0.00 
 268    1:40   -0.00   40.5    48    3.8   161     5.8   806.8    0.00 
 268    1:50   -0.00   40.2    49    3.3   180     5.0   806.7    0.00 
 268    2:00   -0.00   40.0    49    3.4   172     6.0   806.7    0.00 
 268    2:10   -0.00   40.7    47    5.1   172     6.8   806.7    0.00 
 268    2:20   -0.00   40.5    49    5.0   176     7.0   806.7    0.00 
 268    2:30   -0.00   40.9    48    4.3   169     5.9   806.7    0.00 
 268    2:40   -0.00   41.1    49    4.2   171     5.8   806.7    0.00 
 268    2:50   -0.00   40.5    50    4.0   179     7.1   806.6    0.00 
 268    3:00   -0.00   40.3    48    5.1   168     7.2   806.7    0.00 
 268    3:10   -0.00   41.0    48    3.7   165     6.8   806.7    0.00 
 268    3:20   -0.00   40.9    46    5.1   157     7.3   806.7    0.00 
 268    3:30   -0.00   40.9    48    4.3   162     7.1   806.7    0.00 
 268    3:40   -0.00   41.7    45    4.4   172     6.5   806.6    0.00 
 268    3:50   -0.00   41.2    46    2.5   171     3.4   806.7    0.00 
 268    4:00   -0.00   41.8    42    4.0   164     5.0   806.6    0.00 
 268    4:10   -0.00   42.8    41    3.8   171     5.1   806.6    0.00 
 268    4:20   -0.00   42.2    42    4.3   168     6.2   806.6    0.00 
 268    4:30   -0.00   41.5    44    5.2   174     6.4   806.5    0.00 
 268    4:40   -0.00   40.2    47    4.6   186     6.0   806.5    0.00 
 268    4:50   -0.00   39.1    47    4.9   155     7.7   806.6    0.00 
 268    5:00   -0.00   40.0    46    5.3   164     7.5   806.5    0.00 
 268    5:10   -0.00   39.9    48    4.1   170     5.7   806.6    0.00 
 268    5:20   -0.01   38.0    52    5.1   167     6.7   806.6    0.00 
 268    5:30   -0.00   38.3    52    4.2   176     6.4   806.5    0.00 
 268    5:40   0.00   37.9    54    3.7   192     7.0   806.6    0.00 
 268    5:50   0.01   38.4    53    4.6   164     6.0   806.7    0.00 
 268    6:00   0.02   39.4    50    5.8   174     6.9   806.6    0.00 
 268    6:10   0.02   40.1    51    4.6   164     5.9   806.6    0.00 
 268    6:20   0.03   39.5    52    5.0   167     5.8   806.6    0.00 
 268    6:30   0.05   42.6    48    4.7   184     6.8   806.6    0.00 
 268    6:40   0.16   45.7    44    3.7   176     6.2   806.6    0.00 
 268    6:50   0.19   49.9    39    4.5   171     6.4   806.5    0.00 
 268    7:00   0.23   53.5    34    4.3   171     6.3   806.5    0.00 
 268    7:10   0.26   56.4    32    3.5   174     5.1   806.4    0.00 
 268    7:20   0.29   59.8    28    3.6   148     5.4   806.3    0.00 
 268    7:30   0.32   62.9    27    3.5   168     5.7   806.3    0.00 
 268    7:40   0.35   64.5    25    5.0   181     7.4   806.1    0.00 
 268    7:50   0.38   65.4    24    5.0   183     7.5   806.0    0.00 
 268    8:00   0.42   66.5    23    6.5   184     8.8   806.0    0.00 
 268    8:10   0.45   67.5    22    6.9   185     9.2   806.0    0.00 
 268    8:20   0.47   70.2    19    8.2   178    12.1   806.1    0.00 
 268    8:30   0.50   72.5    16    9.4   158    13.4   806.1    0.00 
 268    8:40   0.53   73.1    16    9.8   155    14.2   806.2    0.00 
 268    8:50   0.55   74.4    15    8.9   158    13.2   806.4    0.00 
 268    9:00   0.57   75.6    15    8.8   174    12.0   806.5    0.00 
 268    9:10   0.58   76.0    15    6.8   186    12.0   806.5    0.00 
 268    9:20   0.61   76.2    14    9.2   176    13.7   806.5    0.00 
 268    9:30   0.65   76.7    14    9.5   174    14.6   806.4    0.00 
 268    9:40   0.67   77.6    13    7.4   169    13.8   806.4    0.00 
 268    9:50   0.70   78.5    13    8.7   180    14.0   806.3    0.00 
 268   10:00   0.73   78.7    13   10.2   173    15.0   806.2    0.00 
 268   10:10   0.74   78.2    12   10.8   165    17.8   806.1    0.00 
 268   10:20   0.76   79.0    12    9.2   169    14.4   806.1    0.00 
 268   10:30   0.77   79.1    12    9.8   169    16.4   806.0    0.00 
 268   10:40   0.78   78.9    11   10.2   156    14.8   805.8    0.00 
 268   10:50   0.79   79.3    11   11.0   158    17.0   805.8    0.00 
 268   11:00   0.80   79.9    10    9.3   148    14.3   805.6    0.00 
 268   11:10   0.81   80.0    10    9.7   156    15.6   805.5    0.00 
 268   11:20   0.82   80.5    10    7.4   154    12.2   805.3    0.00 
 268   11:30   0.82   81.2    10    5.4   221    12.9   805.2    0.00 
 268   11:40   0.82   81.2    10    6.4   170    11.2   805.2    0.00 
 268   11:50   0.82   82.0    10    8.1   155    13.0   805.0    0.00 
 268   12:00   0.81   81.4     9    6.7   127    12.6   804.9    0.00 
 268   12:10   0.80   81.0    11    6.4   202    13.5   804.7    0.00 
 268   12:20   0.79   81.4    11    3.9   224     9.6   804.6    0.00 
 268   12:30   0.78   81.3    11    4.3   284     8.9   804.5    0.00 
 268   12:40   0.78   81.9    10    3.9   166    11.0   804.3    0.00 
 268   12:50   0.77   82.3    11    8.8   174    13.0   804.1    0.00 
 268   13:00   0.75   82.2    10    7.1   167    16.0   804.1    0.00 
 268   13:10   0.74   82.5    11    7.3   190    12.7   804.0    0.00 
 268   13:20   0.71   81.5    12    9.8   212    15.0   804.0    0.00 
 268   13:30   0.70   81.1    12    7.2   228    12.6   804.0    0.00 
 268   13:40   0.69   81.8    11    7.0   187    13.2   803.9    0.00 
 268   13:50   0.67   81.8    11    8.6   206    14.6   803.9    0.00 
 268   14:00   0.63   82.1    11    5.6   194     8.9   803.8    0.00 
 268   14:10   0.61   82.1    11    7.0   243    13.0   803.7    0.00 
 268   14:20   0.57   81.2    12    8.7   243    17.8   803.6    0.00 
 268   14:30   0.54   80.2    12   11.1   242    16.0   803.6    0.00 
 268   14:40   0.48   79.3    12   10.2   233    16.0   803.6    0.00 
 268   14:50   0.47   79.5    12   10.4   218    16.8   803.6    0.00 
 268   15:00   0.42   79.2    12    8.7   224    14.0   803.6    0.00 
 268   15:10   0.39   78.8    13    9.0   230    16.2   803.5    0.00 
 268   15:20   0.35   78.7    13    8.3   228    16.5   803.4    0.00 
 268   15:30   0.32   78.2    13    8.2   223    14.0   803.4    0.00 
 268   15:40   0.30   77.7    13    8.5   212    12.5   803.4    0.00 
 268   15:50   0.28   77.5    14    6.1   229    10.7   803.3    0.00 
 268   16:00   0.25   77.4    14    5.6   210    12.6   803.3    0.00 
 268   16:10   0.23   77.3    14    4.5   216     9.9   803.2    0.00 
 268   16:20   0.20   77.7    15    3.2   226     7.5   803.2    0.00 
 268   16:30   0.18   76.7    16    3.5   204     6.8   803.2    0.00 
 268   16:40   0.15   75.1    16    4.9   197     7.8   803.1    0.00 
 268   16:50   0.12   73.5    17    5.3   194    10.5   802.9    0.00 
 268   17:00   0.09   71.8    19    3.4   184     5.0   802.8    0.00 
 268   17:10   0.06   70.0    19    3.6   170     4.6   802.8    0.00 
 268   17:20   0.03   67.4    21    4.0   168     5.4   802.8    0.00 
 268   17:30   0.01   65.4    21    4.5   168     6.3   802.8    0.00 
 268   17:40   0.00   63.2    22    3.5   172     6.2   802.7    0.00 
 268   17:50   -0.00   60.3    26    2.6   182     5.0   802.6    0.00 
 268   18:00   -0.00   59.2    26    2.4   170     4.3   802.5    0.00 
 268   18:10   -0.00   62.4    19    4.0   154     5.3   802.3    0.00 
 268   18:20   -0.00   64.0    19    2.8   149     3.9   802.4    0.00 
 268   18:30   -0.00   63.7    18    3.4   148     5.4   802.4    0.00 
 268   18:40   -0.01   62.3    18    5.3   115     8.7   802.4    0.00 
 268   18:50   -0.01   61.6    20    3.4   147     6.7   802.4    0.00 
 268   19:00   -0.01   60.8    19    6.2   105    10.5   802.5    0.00 
 268   19:10   -0.01   61.1    19    4.0   128     6.8   802.5    0.00 
 268   19:20   -0.01   60.7    19    4.1   133     8.2   802.5    0.00 
 268   19:30   -0.00   63.0    16    6.9   126     8.9   802.5    0.00 
 268   19:40   -0.01   62.3    17    7.6   119     9.9   802.6    0.00 
 268   19:50   -0.01   62.5    17    7.6   120     9.6   802.8    0.00 
 268   20:00   -0.01   61.3    17    8.0   121    11.4   802.8    0.00 
 268   20:10   -0.01   61.1    17    8.2   120    10.8   802.8    0.00 
 268   20:20   -0.00   61.2    17    7.9   120    11.5   802.8    0.00 
 268   20:30   -0.01   63.2    16    7.9   121    12.8   802.8    0.00 
 268   20:40   -0.01   63.9    15    7.5   125    11.6   802.9    0.00 
 268   20:50   -0.01   62.3    16    8.0   120    12.8   802.9    0.00 
 268   21:00   -0.01   62.5    16    8.5   127    12.9   802.9    0.00 
 268   21:10   -0.01   63.0    16    8.5   119    12.1   803.0    0.00 
 268   21:20   -0.01   61.9    17    8.6   120    12.1   803.0    0.00 
 268   21:30   -0.01   62.1    16    9.4   119    13.4   803.0    0.00 
 268   21:40   -0.01   61.8    16    9.7   121    12.4   803.0    0.00 
 268   21:50   -0.01   61.4    17   10.1   120    14.9   802.9    0.00 
 268   22:00   -0.01   62.2    16    9.5   118    13.3   802.9    0.00 
 268   22:10   -0.01   62.3    16    9.3   124    12.8   802.9    0.00 
 268   22:20   -0.01   60.8    17    8.9   120    11.7   803.1    0.00 
 268   22:30   -0.01   59.9    17    9.6   116    11.6   803.2    0.00 
 268   22:40   -0.01   60.2    17    8.2   117    11.0   803.2    0.00 
 268   22:50   -0.01   60.1    17    8.1   121    10.7   803.4    0.00 

Return to Steptoe Valley WMA graphs page.


Western Regional Climate Center,wrcc@dri.edu